Time;durP1;ratioP1;P1;durP2;ratioP2;P2;SDS_P1;SDS_P2;PMS_P1;PMS_P2;Temp;Humidity;BMP_temperature;BMP_pressure;BME280_temperature;BME280_humidity;BME280_pressure;Samples;Min_cycle;Max_cycle;Signal;HPM_P1;HPM_P2
2023/07/15 00:01:14;;;;;;;1.65;1.55;;;28.70;41.10;;;;;;5149844;27;45306;-71
2023/07/15 00:03:41;;;;;;;1.85;1.75;;;28.70;41.10;;;;;;5149911;27;45421;-71
2023/07/15 00:06:09;;;;;;;2.03;1.92;;;28.70;41.20;;;;;;5150135;27;45417;-71
2023/07/15 00:08:36;;;;;;;2.42;1.70;;;28.70;41.20;;;;;;5148428;27;45380;-71
2023/07/15 00:11:03;;;;;;;2.10;1.90;;;28.60;41.10;;;;;;5149927;27;45535;-71
2023/07/15 00:13:30;;;;;;;2.83;2.22;;;28.60;41.10;;;;;;5149573;27;45167;-71
2023/07/15 00:15:57;;;;;;;2.55;1.80;;;28.60;41.10;;;;;;5150040;27;45284;-71
2023/07/15 00:18:25;;;;;;;1.52;1.42;;;28.60;41.20;;;;;;5149466;27;45436;-71
2023/07/15 00:20:52;;;;;;;1.70;1.58;;;28.50;41.10;;;;;;5149591;27;45256;-71
2023/07/15 00:23:21;;;;;;;2.20;1.85;;;28.60;41.20;;;;;;5149532;27;45317;-71
2023/07/15 00:25:50;;;;;;;1.95;1.60;;;28.50;41.10;;;;;;5149800;27;45501;-71
2023/07/15 00:28:17;;;;;;;1.90;1.60;;;28.50;41.10;;;;;;5149512;27;45708;-71
2023/07/15 00:30:44;;;;;;;1.95;1.85;;;28.50;41.20;;;;;;5149358;27;45276;-71
2023/07/15 00:33:14;;;;;;;1.80;1.60;;;28.40;41.10;;;;;;5149599;27;45307;-71
2023/07/15 00:35:40;;;;;;;2.63;1.88;;;28.40;41.00;;;;;;5149889;27;45499;-70
2023/07/15 00:38:07;;;;;;;1.70;1.60;;;28.40;41.10;;;;;;5149187;27;45269;-71
2023/07/15 00:40:37;;;;;;;2.13;1.70;;;28.40;41.10;;;;;;5149178;27;45252;-71
2023/07/15 00:43:42;;;;;;;2.28;2.03;;;28.40;41.00;;;;;;5149254;27;45318;-71
2023/07/15 00:46:27;;;;;;;1.70;1.60;;;28.40;41.00;;;;;;5149539;27;45220;-71
2023/07/15 00:48:55;;;;;;;1.98;1.73;;;28.40;41.10;;;;;;5148912;27;46730;-70
2023/07/15 00:51:22;;;;;;;1.92;1.75;;;28.40;41.00;;;;;;5149142;27;45295;-71
2023/07/15 00:53:49;;;;;;;1.70;1.60;;;28.40;41.00;;;;;;5148981;27;45292;-71
2023/07/15 00:56:16;;;;;;;1.40;1.30;;;28.40;41.00;;;;;;5149402;27;45445;-70
2023/07/15 00:58:43;;;;;;;1.85;1.75;;;28.30;40.90;;;;;;5148856;27;46741;-70
2023/07/15 01:01:10;;;;;;;1.77;1.67;;;28.40;41.00;;;;;;5148601;27;45450;-71
2023/07/15 01:03:40;;;;;;;1.77;1.67;;;28.30;40.90;;;;;;5148341;27;45329;-70
2023/07/15 01:06:06;;;;;;;1.60;1.50;;;28.30;40.90;;;;;;5148984;27;45323;-69
2023/07/15 01:08:33;;;;;;;1.70;1.60;;;28.30;41.60;;;;;;5148697;27;45303;-70
2023/07/15 01:11:00;;;;;;;1.70;1.42;;;28.30;41.00;;;;;;5148720;27;45381;-70
2023/07/15 01:13:27;;;;;;;1.60;1.50;;;28.20;40.90;;;;;;5148748;27;45353;-70
2023/07/15 01:15:54;;;;;;;1.55;1.45;;;28.20;41.00;;;;;;5149041;27;45290;-71
2023/07/15 01:18:20;;;;;;;1.85;1.75;;;28.20;40.90;;;;;;5148592;27;46391;-70
2023/07/15 01:20:50;;;;;;;1.67;1.58;;;28.20;41.00;;;;;;5148201;27;45363;-70
2023/07/15 01:23:18;;;;;;;1.60;1.50;;;28.20;41.00;;;;;;5148716;27;45333;-70
2023/07/15 01:25:45;;;;;;;1.50;1.40;;;28.20;41.00;;;;;;5148983;27;45306;-70
2023/07/15 01:28:12;;;;;;;1.67;1.48;;;28.20;40.90;;;;;;5148523;27;46713;-70
2023/07/15 01:30:38;;;;;;;1.77;1.67;;;28.20;41.00;;;;;;5148430;27;45349;-70
2023/07/15 01:33:04;;;;;;;2.33;1.50;;;28.20;41.00;;;;;;5148587;27;45350;-70
2023/07/15 01:35:32;;;;;;;1.40;1.30;;;28.20;41.00;;;;;;5148633;27;45407;-71
2023/07/15 01:37:58;;;;;;;1.55;1.45;;;28.20;41.10;;;;;;5148317;27;46428;-70
2023/07/15 01:40:27;;;;;;;1.42;1.33;;;28.10;41.00;;;;;;5148417;27;45310;-70
2023/07/15 01:42:53;;;;;;;1.60;1.50;;;28.10;41.00;;;;;;5148489;27;45376;-70
2023/07/15 01:45:20;;;;;;;1.92;1.83;;;28.10;41.10;;;;;;5148517;27;45298;-70
2023/07/15 01:47:47;;;;;;;1.40;1.30;;;28.10;41.10;;;;;;5147577;27;46924;-70
2023/07/15 01:50:14;;;;;;;1.60;1.50;;;28.10;41.10;;;;;;5147919;27;45347;-70
2023/07/15 01:52:41;;;;;;;1.95;1.50;;;28.00;41.10;;;;;;5147813;27;45325;-70
2023/07/15 01:55:08;;;;;;;1.60;1.50;;;28.00;41.10;;;;;;5148678;27;45381;-70
2023/07/15 01:57:36;;;;;;;1.98;1.40;;;28.10;41.20;;;;;;5148122;27;45665;-70
2023/07/15 02:00:07;;;;;;;1.63;1.50;;;28.00;41.10;;;;;;5148278;27;45268;-70
2023/07/15 02:02:34;;;;;;;1.50;1.40;;;28.00;41.30;;;;;;5148171;27;45397;-70
2023/07/15 02:05:01;;;;;;;1.95;1.60;;;28.00;41.30;;;;;;5148250;27;45319;-70
2023/07/15 02:07:28;;;;;;;1.40;1.30;;;28.00;41.20;;;;;;5147976;27;47658;-70
2023/07/15 02:09:55;;;;;;;1.42;1.33;;;28.00;41.30;;;;;;5147939;27;45271;-70
2023/07/15 02:12:21;;;;;;;1.85;1.75;;;27.90;41.20;;;;;;5147843;27;45272;-70
2023/07/15 02:14:50;;;;;;;1.70;1.60;;;27.90;41.20;;;;;;5147947;27;45379;-70
2023/07/15 02:17:20;;;;;;;1.55;1.38;;;27.90;41.30;;;;;;5147548;27;45646;-70
2023/07/15 02:19:47;;;;;;;1.33;1.25;;;27.90;41.30;;;;;;5147694;27;45450;-70
2023/07/15 02:22:14;;;;;;;1.70;1.60;;;27.90;41.30;;;;;;5147713;27;45401;-70
2023/07/15 02:24:41;;;;;;;1.85;1.50;;;27.90;41.30;;;;;;5147914;27;45464;-70
2023/07/15 02:27:08;;;;;;;1.70;1.60;;;27.90;41.30;;;;;;5147404;27;45130;-70
2023/07/15 02:29:35;;;;;;;1.60;1.50;;;27.90;41.30;;;;;;5147659;27;45407;-70
2023/07/15 02:32:04;;;;;;;1.20;1.20;;;27.80;41.30;;;;;;5147927;27;45396;-69
2023/07/15 02:34:30;;;;;;;1.83;1.60;;;27.80;41.30;;;;;;5151035;27;45588;-70
2023/07/15 02:36:57;;;;;;;1.67;1.58;;;27.80;41.40;;;;;;5151321;27;45500;-70
2023/07/15 02:39:24;;;;;;;1.67;1.58;;;27.80;41.40;;;;;;5151218;27;45346;-70
2023/07/15 02:41:51;;;;;;;1.60;1.50;;;27.70;42.00;;;;;;5151215;27;45306;-71
2023/07/15 02:44:18;;;;;;;1.63;1.52;;;27.70;41.40;;;;;;5151358;27;45381;-70
2023/07/15 02:46:44;;;;;;;1.50;1.40;;;27.70;41.40;;;;;;5150736;27;45477;-70
2023/07/15 02:49:13;;;;;;;1.40;1.30;;;27.70;41.40;;;;;;5151033;27;45326;-70
2023/07/15 02:51:39;;;;;;;1.50;1.40;;;27.70;41.40;;;;;;5150702;27;45585;-70
2023/07/15 02:54:06;;;;;;;1.55;1.42;;;27.70;41.50;;;;;;5150813;27;45268;-70
2023/07/15 02:56:33;;;;;;;1.55;1.45;;;27.60;41.30;;;;;;5150165;27;46714;-70
2023/07/15 02:59:01;;;;;;;1.70;1.60;;;27.60;41.40;;;;;;5150670;27;45396;-70
2023/07/15 03:01:28;;;;;;;2.13;1.63;;;27.60;41.40;;;;;;5150930;27;45188;-70
2023/07/15 03:03:56;;;;;;;1.55;1.45;;;27.60;41.50;;;;;;5150647;27;45487;-69
2023/07/15 03:06:24;;;;;;;1.60;1.50;;;27.60;41.50;;;;;;5150564;27;46468;-69
2023/07/15 03:08:52;;;;;;;2.00;1.30;;;27.60;41.50;;;;;;5150612;27;45401;-69
2023/07/15 03:11:18;;;;;;;1.52;1.42;;;27.50;41.40;;;;;;5150828;27;45269;-70
2023/07/15 03:13:45;;;;;;;1.35;1.25;;;27.50;42.00;;;;;;5150484;27;45307;-70
2023/07/15 03:16:12;;;;;;;1.40;1.30;;;27.50;41.50;;;;;;5150659;27;46740;-70
2023/07/15 03:18:39;;;;;;;1.40;1.30;;;27.50;41.50;;;;;;5150241;27;45397;-70
2023/07/15 03:21:06;;;;;;;1.63;1.52;;;27.50;41.50;;;;;;5150373;27;45407;-71
2023/07/15 03:23:34;;;;;;;1.45;1.35;;;27.50;41.40;;;;;;5150500;27;45358;-71
2023/07/15 03:26:01;;;;;;;1.35;1.25;;;27.50;41.40;;;;;;5150386;27;46415;-70
2023/07/15 03:28:27;;;;;;;1.52;1.42;;;27.40;41.40;;;;;;5150600;27;45318;-69
2023/07/15 03:30:54;;;;;;;1.33;1.23;;;27.40;41.30;;;;;;5150542;27;45361;-70
2023/07/15 03:33:21;;;;;;;1.33;1.23;;;27.40;41.30;;;;;;5150560;27;45450;-70
2023/07/15 03:35:48;;;;;;;1.35;1.25;;;27.40;41.30;;;;;;5149987;27;45590;-70
2023/07/15 03:38:15;;;;;;;1.40;1.30;;;27.40;41.30;;;;;;5150335;27;45515;-70
2023/07/15 03:40:43;;;;;;;1.35;1.25;;;27.40;41.90;;;;;;5150239;27;45344;-71
2023/07/15 03:43:10;;;;;;;1.20;1.10;;;27.40;41.30;;;;;;5149896;27;45406;-70
2023/07/15 03:45:36;;;;;;;1.20;1.10;;;27.40;41.30;;;;;;5149882;27;45373;-70
2023/07/15 03:48:05;;;;;;;1.50;1.40;;;27.40;41.30;;;;;;5150227;27;45344;-70
2023/07/15 03:50:31;;;;;;;1.58;1.48;;;27.40;41.30;;;;;;5150229;27;45321;-70
2023/07/15 03:52:58;;;;;;;1.88;1.52;;;27.40;41.30;;;;;;5150061;27;45372;-71
2023/07/15 03:55:25;;;;;;;1.63;1.48;;;27.40;41.20;;;;;;5149751;27;46700;-70
2023/07/15 03:57:53;;;;;;;1.40;1.30;;;27.40;41.30;;;;;;5149705;27;45327;-70
2023/07/15 04:00:21;;;;;;;1.20;1.17;;;27.40;41.30;;;;;;5149995;27;45307;-70
2023/07/15 04:02:49;;;;;;;1.30;1.20;;;27.30;41.20;;;;;;5149828;27;45324;-70
2023/07/15 04:05:16;;;;;;;1.13;1.10;;;27.30;41.30;;;;;;5149534;27;45499;-70
2023/07/15 04:07:43;;;;;;;1.00;1.00;;;27.30;41.30;;;;;;5149006;27;45377;-70
2023/07/15 04:10:11;;;;;;;1.50;1.40;;;27.30;41.30;;;;;;5149547;27;45309;-71
2023/07/15 04:12:38;;;;;;;1.60;1.50;;;27.30;41.30;;;;;;5149872;27;45309;-70
2023/07/15 04:15:08;;;;;;;1.48;1.35;;;27.30;41.30;;;;;;5149546;27;45405;-71
2023/07/15 04:17:35;;;;;;;1.30;1.20;;;27.30;41.30;;;;;;5149339;27;45335;-70
2023/07/15 04:20:07;;;;;;;1.33;1.23;;;27.30;41.30;;;;;;5149880;27;45391;-70
2023/07/15 04:22:37;;;;;;;1.40;1.30;;;27.30;41.40;;;;;;5149681;27;45409;-70
2023/07/15 04:25:04;;;;;;;1.50;1.40;;;27.30;41.40;;;;;;5149050;27;48379;-70
2023/07/15 04:27:30;;;;;;;1.40;1.30;;;27.20;41.30;;;;;;5149228;27;45452;-70
2023/07/15 04:29:58;;;;;;;1.40;1.30;;;27.20;41.30;;;;;;5149545;27;45366;-70
2023/07/15 04:32:26;;;;;;;1.38;1.27;;;27.20;41.30;;;;;;5149231;27;45454;-69
2023/07/15 04:34:53;;;;;;;1.40;1.30;;;27.20;41.30;;;;;;5148887;27;45621;-70
2023/07/15 04:37:20;;;;;;;1.42;1.33;;;27.20;41.30;;;;;;5148887;27;45340;-70
2023/07/15 04:39:47;;;;;;;1.48;1.38;;;27.20;41.40;;;;;;5149155;27;45359;-69
2023/07/15 04:42:13;;;;;;;1.17;1.10;;;27.20;41.40;;;;;;5149028;27;45341;-70
2023/07/15 04:44:40;;;;;;;1.45;1.33;;;27.20;41.40;;;;;;5148626;27;45383;-70
2023/07/15 04:47:07;;;;;;;1.45;1.35;;;27.20;41.40;;;;;;5148736;27;45343;-70
2023/07/15 04:49:36;;;;;;;1.40;1.30;;;27.20;41.30;;;;;;5148934;27;45393;-70
2023/07/15 04:52:02;;;;;;;1.98;1.75;;;27.20;41.40;;;;;;5148526;27;45382;-69
2023/07/15 04:54:29;;;;;;;1.40;1.27;;;27.20;41.30;;;;;;5147724;27;46742;-70
2023/07/15 04:56:56;;;;;;;1.48;1.38;;;27.20;41.40;;;;;;5148285;27;45319;-69
2023/07/15 04:59:23;;;;;;;1.25;1.13;;;27.20;41.30;;;;;;5148791;27;45334;-70
2023/07/15 05:01:51;;;;;;;1.40;1.30;;;27.10;41.40;;;;;;5149237;27;45323;-69
2023/07/15 05:04:18;;;;;;;1.38;1.27;;;27.20;41.40;;;;;;5148291;27;46541;-70
2023/07/15 05:06:46;;;;;;;1.23;1.17;;;27.20;41.30;;;;;;5148432;27;45321;-69
2023/07/15 05:09:13;;;;;;;1.33;1.30;;;27.10;41.30;;;;;;5148630;27;45330;-70
2023/07/15 05:11:40;;;;;;;1.30;1.23;;;27.10;41.30;;;;;;5148551;27;45544;-69
2023/07/15 05:14:07;;;;;;;1.42;1.33;;;27.20;41.30;;;;;;5147911;27;45487;-69
2023/07/15 05:16:34;;;;;;;1.30;1.30;;;27.10;41.30;;;;;;5148321;27;45301;-70
2023/07/15 05:19:00;;;;;;;1.48;1.38;;;27.10;41.30;;;;;;5148388;27;45384;-69
2023/07/15 05:21:27;;;;;;;1.40;1.30;;;27.20;41.30;;;;;;5148455;27;45418;-69
2023/07/15 05:23:56;;;;;;;1.35;1.25;;;27.10;41.30;;;;;;5148091;27;45602;-69
2023/07/15 05:26:23;;;;;;;1.25;1.20;;;27.10;41.20;;;;;;5148169;27;45389;-70
2023/07/15 05:28:49;;;;;;;1.35;1.25;;;27.10;41.20;;;;;;5148163;27;45257;-69
2023/07/15 05:31:16;;;;;;;1.70;1.58;;;27.10;41.30;;;;;;5148573;27;45313;-71
2023/07/15 05:33:44;;;;;;;1.30;1.20;;;27.10;41.20;;;;;;5147873;27;45527;-70
2023/07/15 05:36:11;;;;;;;1.25;1.20;;;27.10;41.20;;;;;;5147924;27;45348;-71
2023/07/15 05:38:41;;;;;;;1.10;1.10;;;27.10;41.20;;;;;;5148366;27;45377;-69
2023/07/15 05:41:10;;;;;;;1.30;1.20;;;27.10;41.20;;;;;;5147990;27;45413;-71
2023/07/15 05:43:37;;;;;;;1.83;1.42;;;27.10;41.20;;;;;;5147375;27;46395;-70
2023/07/15 05:46:04;;;;;;;1.52;1.42;;;27.10;41.20;;;;;;5147932;27;45418;-72
2023/07/15 05:48:31;;;;;;;1.45;1.35;;;27.20;41.20;;;;;;5148023;27;45310;-70
2023/07/15 05:50:57;;;;;;;1.35;1.25;;;27.20;41.20;;;;;;5147992;27;45240;-70
2023/07/15 05:53:24;;;;;;;1.17;1.08;;;27.20;41.20;;;;;;5147180;27;46242;-70
2023/07/15 05:55:51;;;;;;;1.33;1.33;;;27.20;41.20;;;;;;5147738;27;45232;-71
2023/07/15 05:58:19;;;;;;;1.38;1.27;;;27.10;41.20;;;;;;5147893;27;45274;-71
2023/07/15 06:00:46;;;;;;;1.80;1.40;;;27.20;41.20;;;;;;5145299;27;45158;-72
2023/07/15 06:03:13;;;;;;;1.20;1.10;;;27.20;41.20;;;;;;5147516;27;45406;-71
2023/07/15 06:05:40;;;;;;;1.08;1.08;;;27.20;41.20;;;;;;5147869;27;45466;-71
2023/07/15 06:08:07;;;;;;;1.58;1.48;;;27.20;41.20;;;;;;5151555;27;45482;-70
2023/07/15 06:10:34;;;;;;;1.40;1.30;;;27.20;41.20;;;;;;5151545;27;45369;-71
2023/07/15 06:13:01;;;;;;;1.35;1.25;;;27.20;41.20;;;;;;5151034;27;46387;-70
2023/07/15 06:15:29;;;;;;;1.27;1.20;;;27.20;41.20;;;;;;5151339;27;45297;-71
2023/07/15 06:17:57;;;;;;;1.30;1.17;;;27.20;41.10;;;;;;5151397;27;45456;-71
2023/07/15 06:20:23;;;;;;;1.67;1.30;;;27.30;41.20;;;;;;5151575;27;45580;-71
2023/07/15 06:22:50;;;;;;;1.40;1.30;;;27.20;41.20;;;;;;5151050;27;45282;-71
2023/07/15 06:25:17;;;;;;;1.38;1.27;;;27.30;41.20;;;;;;5151191;27;45346;-71
2023/07/15 06:27:44;;;;;;;1.42;1.33;;;27.30;41.20;;;;;;5150922;27;45698;-70
2023/07/15 06:30:12;;;;;;;1.50;1.40;;;27.30;41.20;;;;;;5151320;27;45400;-70
2023/07/15 06:32:40;;;;;;;2.00;1.10;;;27.30;41.20;;;;;;5150916;27;45420;-70
2023/07/15 06:35:08;;;;;;;1.33;1.23;;;27.30;41.20;;;;;;5150850;27;45196;-70
2023/07/15 06:37:35;;;;;;;1.45;1.35;;;27.30;41.80;;;;;;5151020;27;45284;-70
2023/07/15 06:40:03;;;;;;;1.10;1.10;;;27.40;41.30;;;;;;5151270;27;45415;-71
2023/07/15 06:42:30;;;;;;;1.30;1.20;;;27.40;41.20;;;;;;5150782;27;46863;-71
2023/07/15 06:44:57;;;;;;;1.35;1.25;;;27.40;41.20;;;;;;5150759;27;45311;-71
2023/07/15 06:47:24;;;;;;;1.17;1.10;;;27.40;41.20;;;;;;5150878;27;45284;-69
2023/07/15 06:49:52;;;;;;;1.00;1.00;;;27.40;41.20;;;;;;5150975;27;45515;-69
2023/07/15 06:52:19;;;;;;;1.10;1.10;;;27.50;41.20;;;;;;5150272;27;46368;-69
2023/07/15 06:54:46;;;;;;;1.30;1.20;;;27.50;41.20;;;;;;5150701;27;45407;-69
2023/07/15 06:57:12;;;;;;;1.80;1.50;;;27.50;41.20;;;;;;5150712;27;45401;-69
2023/07/15 06:59:40;;;;;;;1.50;1.40;;;27.50;41.10;;;;;;5151193;27;45373;-71
2023/07/15 07:02:07;;;;;;;1.40;1.30;;;27.50;41.00;;;;;;5150396;27;45431;-71
2023/07/15 07:04:33;;;;;;;1.35;1.20;;;27.50;41.00;;;;;;5150496;27;45456;-69
2023/07/15 07:07:02;;;;;;;1.10;1.00;;;27.60;41.10;;;;;;5150610;27;45384;-69
2023/07/15 07:09:28;;;;;;;1.58;1.48;;;27.60;41.00;;;;;;5150553;27;45453;-68
2023/07/15 07:11:55;;;;;;;1.08;1.08;;;27.60;41.00;;;;;;5150379;27;47325;-69
2023/07/15 07:14:22;;;;;;;1.40;1.30;;;27.60;41.00;;;;;;5149928;27;45393;-69
2023/07/15 07:16:49;;;;;;;1.10;1.10;;;27.70;41.10;;;;;;5150527;27;45509;-69
2023/07/15 07:19:16;;;;;;;1.45;1.35;;;27.70;41.00;;;;;;5149778;27;45497;-69
2023/07/15 07:21:43;;;;;;;1.20;1.10;;;27.70;41.00;;;;;;5150237;27;45365;-74
2023/07/15 07:24:11;;;;;;;1.10;1.00;;;27.70;41.60;;;;;;5150074;27;45302;-71
2023/07/15 07:26:38;;;;;;;1.30;1.20;;;27.70;40.90;;;;;;5150234;27;45266;-70
2023/07/15 07:29:05;;;;;;;1.55;1.10;;;27.80;41.00;;;;;;5150500;27;45404;-70
2023/07/15 07:31:32;;;;;;;1.65;1.42;;;27.90;41.00;;;;;;5149936;27;46599;-70
2023/07/15 07:33:59;;;;;;;1.23;1.13;;;27.90;40.90;;;;;;5149877;27;45244;-71
2023/07/15 07:36:25;;;;;;;3.05;1.15;;;27.90;41.50;;;;;;5150211;27;45329;-70
2023/07/15 07:38:52;;;;;;;1.55;1.20;;;27.90;40.90;;;;;;5150316;27;45312;-71
2023/07/15 07:41:20;;;;;;;1.30;1.20;;;28.00;40.90;;;;;;5149899;27;47289;-71
2023/07/15 07:43:47;;;;;;;1.40;1.30;;;28.00;40.90;;;;;;5149781;27;45323;-70
2023/07/15 07:46:14;;;;;;;1.30;1.20;;;28.00;41.40;;;;;;5150154;27;45336;-71
2023/07/15 07:48:41;;;;;;;1.85;1.17;;;28.10;40.80;;;;;;5150064;27;45463;-71
2023/07/15 07:51:08;;;;;;;1.05;1.02;;;28.10;40.90;;;;;;5149790;27;47490;-71
2023/07/15 07:53:35;;;;;;;1.98;1.30;;;28.10;40.80;;;;;;5149543;27;45416;-71
2023/07/15 07:56:02;;;;;;;1.30;1.20;;;28.20;40.90;;;;;;5149933;27;45389;-71
2023/07/15 07:58:30;;;;;;;1.40;1.30;;;28.20;40.90;;;;;;5149634;27;45451;-70
2023/07/15 08:00:57;;;;;;;3.45;1.42;;;28.20;40.90;;;;;;5149480;27;47259;-70
2023/07/15 08:03:24;;;;;;;1.95;1.20;;;28.30;41.00;;;;;;5149381;27;45316;-70
2023/07/15 08:05:51;;;;;;;1.17;1.13;;;28.30;41.00;;;;;;5144532;27;45478;-70
2023/07/15 08:08:18;;;;;;;1.85;1.10;;;28.30;41.00;;;;;;5150071;27;45276;-71
2023/07/15 08:10:44;;;;;;;1.35;1.25;;;28.30;41.20;;;;;;5149559;27;47324;-69
2023/07/15 08:13:11;;;;;;;1.40;1.30;;;28.40;41.40;;;;;;5149477;27;45449;-70
2023/07/15 08:15:39;;;;;;;1.40;1.30;;;28.40;41.70;;;;;;5149354;27;45456;-69
2023/07/15 08:18:06;;;;;;;3.17;1.40;;;28.40;41.70;;;;;;5149584;27;45425;-71
2023/07/15 08:20:33;;;;;;;3.22;1.40;;;28.50;42.20;;;;;;5149378;27;45572;-73
2023/07/15 08:23:00;;;;;;;1.77;1.20;;;28.50;42.30;;;;;;5149132;27;45309;-70
2023/07/15 08:25:27;;;;;;;1.38;1.27;;;28.50;42.40;;;;;;5149057;27;45340;-70
2023/07/15 08:27:54;;;;;;;3.47;1.42;;;28.50;42.80;;;;;;5149232;27;45418;-71
2023/07/15 08:30:21;;;;;;;1.77;1.20;;;28.60;42.90;;;;;;5147560;27;45459;-69
2023/07/15 08:32:49;;;;;;;1.58;1.48;;;28.60;43.00;;;;;;5148986;27;45492;-69
2023/07/15 08:35:16;;;;;;;2.25;1.38;;;28.70;43.10;;;;;;5149000;27;45266;-68
2023/07/15 08:37:43;;;;;;;3.92;1.50;;;28.70;43.00;;;;;;5149912;27;45555;-71
2023/07/15 08:40:11;;;;;;;1.50;1.40;;;28.70;43.10;;;;;;5148852;27;45381;-70
2023/07/15 08:42:38;;;;;;;3.53;1.42;;;28.80;43.00;;;;;;5148502;27;45419;-67
2023/07/15 08:45:05;;;;;;;2.13;1.30;;;28.80;43.00;;;;;;5148598;27;45175;-69
2023/07/15 08:47:32;;;;;;;1.70;1.60;;;28.90;43.10;;;;;;5149198;27;45486;-66
2023/07/15 08:50:03;;;;;;;2.50;1.40;;;28.90;43.00;;;;;;5148350;27;46412;-72
2023/07/15 08:52:29;;;;;;;5.03;1.35;;;29.00;43.20;;;;;;5148173;27;45427;-68
2023/07/15 08:54:56;;;;;;;2.97;1.48;;;29.00;43.10;;;;;;5149140;27;45259;-70
2023/07/15 08:57:23;;;;;;;1.98;1.50;;;29.00;43.20;;;;;;5149296;27;45427;-71
2023/07/15 08:59:51;;;;;;;4.50;1.52;;;29.10;43.40;;;;;;5148575;27;45444;-68
2023/07/15 09:02:18;;;;;;;1.55;1.40;;;29.10;43.50;;;;;;5148988;27;45391;-70
2023/07/15 09:04:44;;;;;;;2.20;1.45;;;29.10;43.50;;;;;;5150254;27;45398;-66
2023/07/15 09:07:13;;;;;;;1.85;1.40;;;29.20;43.90;;;;;;5150616;27;45276;-66
2023/07/15 09:09:39;;;;;;;1.85;1.48;;;29.20;44.10;;;;;;5146888;27;45472;-71
2023/07/15 09:12:07;;;;;;;2.67;1.48;;;29.30;44.60;;;;;;5147521;27;45435;-70
2023/07/15 09:14:38;;;;;;;2.67;1.48;;;29.30;45.10;;;;;;5150386;27;45302;-72
2023/07/15 09:17:05;;;;;;;1.90;1.65;;;29.30;45.20;;;;;;5150351;27;45349;-70
2023/07/15 09:19:34;;;;;;;1.50;1.40;;;29.40;45.80;;;;;;5148510;27;46369;-72
2023/07/15 09:22:04;;;;;;;8.20;1.88;;;29.40;45.30;;;;;;5148790;27;45316;-75
2023/07/15 09:24:32;;;;;;;2.33;1.60;;;29.40;45.30;;;;;;5145772;27;45457;-71
2023/07/15 09:27:00;;;;;;;3.50;2.00;;;29.50;45.90;;;;;;5148971;27;45320;-71
2023/07/15 09:29:27;;;;;;;4.25;2.10;;;29.50;46.10;;;;;;5147254;27;47291;-73
2023/07/15 09:31:54;;;;;;;8.23;2.58;;;29.50;45.90;;;;;;5147644;27;45395;-72
2023/07/15 09:34:21;;;;;;;7.82;3.70;;;29.60;46.60;;;;;;5145874;27;45392;-73
2023/07/15 09:36:48;;;;;;;8.85;3.83;;;29.60;46.80;;;;;;5148608;27;45406;-74
2023/07/15 09:39:15;;;;;;;4.63;3.10;;;29.70;46.80;;;;;;5146763;27;45448;-76
2023/07/15 09:41:43;;;;;;;3.83;2.40;;;29.80;46.40;;;;;;5137835;27;45375;-73
2023/07/15 09:44:10;;;;;;;4.43;2.58;;;29.90;47.10;;;;;;5131369;27;45393;-74
2023/07/15 09:46:37;;;;;;;2.30;2.08;;;29.90;46.60;;;;;;5129287;27;45623;-75
2023/07/15 09:49:04;;;;;;;3.67;2.22;;;30.00;46.40;;;;;;5147169;27;47581;-75
2023/07/15 09:51:31;;;;;;;4.32;2.30;;;30.10;46.70;;;;;;5131946;27;45434;-74
2023/07/15 09:53:58;;;;;;;2.83;2.10;;;30.20;46.60;;;;;;5132862;27;45395;-75
2023/07/15 09:56:28;;;;;;;2.13;1.90;;;30.20;44.90;;;;;;5133196;27;45544;-72
2023/07/15 09:58:57;;;;;;;5.35;2.00;;;30.20;44.80;;;;;;5140761;27;46490;-73
2023/07/15 10:01:27;;;;;;;2.28;2.08;;;30.20;44.70;;;;;;5138309;27;45458;-73
2023/07/15 10:03:56;;;;;;;2.47;1.90;;;30.20;44.00;;;;;;5145753;27;45666;-71
2023/07/15 10:06:23;;;;;;;2.95;1.85;;;30.30;43.80;;;;;;5141705;27;45110;-74
2023/07/15 10:08:50;;;;;;;3.28;2.00;;;30.30;43.10;;;;;;5136546;27;46420;-72
2023/07/15 10:11:16;;;;;;;1.80;1.70;;;30.20;42.30;;;;;;5146978;27;45335;-73
2023/07/15 10:13:43;;;;;;;2.30;2.10;;;30.20;42.10;;;;;;5141982;27;45442;-74
2023/07/15 10:16:11;;;;;;;2.17;1.75;;;30.30;42.10;;;;;;5134236;27;45488;-74
2023/07/15 10:18:38;;;;;;;4.65;1.92;;;30.30;42.00;;;;;;5146452;27;45501;-74
2023/07/15 10:21:07;;;;;;;3.72;1.88;;;30.30;41.90;;;;;;5133375;27;45615;-72
2023/07/15 10:23:34;;;;;;;2.28;2.08;;;30.30;42.00;;;;;;5126647;27;45256;-72
2023/07/15 10:26:03;;;;;;;2.40;2.08;;;30.30;42.00;;;;;;5139653;27;45339;-74
2023/07/15 10:28:30;;;;;;;4.03;2.08;;;30.30;42.00;;;;;;5146610;27;46549;-75
2023/07/15 10:31:08;;;;;;;2.13;1.92;;;30.40;41.80;;;;;;5136861;27;45514;-72
2023/07/15 10:33:36;;;;;;;3.67;2.10;;;30.50;41.70;;;;;;5144427;27;45648;-77
2023/07/15 10:36:04;;;;;;;3.40;1.80;;;30.50;41.50;;;;;;5148481;27;45582;-75
2023/07/15 10:38:31;;;;;;;3.72;2.47;;;30.50;41.30;;;;;;5147997;27;46400;-76
2023/07/15 10:40:59;;;;;;;5.22;2.20;;;30.50;42.00;;;;;;5147789;27;45413;-76
2023/07/15 10:43:37;;;;;;;3.42;1.85;;;30.50;42.00;;;;;;5147425;27;45531;-76
2023/07/15 10:46:05;;;;;;;3.60;2.08;;;30.60;42.00;;;;;;5148017;27;45427;-76
2023/07/15 10:48:32;;;;;;;4.82;2.10;;;30.60;42.10;;;;;;5147489;27;46391;-76
2023/07/15 10:51:02;;;;;;;2.08;1.98;;;30.60;42.00;;;;;;5147781;27;45424;-76
2023/07/15 10:53:30;;;;;;;2.15;2.00;;;30.60;42.00;;;;;;5148439;27;45454;-73
2023/07/15 10:55:58;;;;;;;3.17;2.17;;;30.60;41.90;;;;;;5151241;27;45604;-77
2023/07/15 10:58:25;;;;;;;3.90;2.30;;;30.60;41.30;;;;;;5150650;27;45723;-76
2023/07/15 11:00:52;;;;;;;8.93;2.42;;;30.60;41.10;;;;;;5148249;27;45256;-75
2023/07/15 11:03:20;;;;;;;4.60;2.53;;;30.70;40.80;;;;;;5150248;27;45367;-75
2023/07/15 11:05:47;;;;;;;4.05;2.20;;;30.70;40.50;;;;;;5149213;27;45524;-74
2023/07/15 11:08:15;;;;;;;12.00;3.30;;;30.80;40.50;;;;;;5150530;27;46378;-75
2023/07/15 11:10:43;;;;;;;11.52;3.25;;;30.80;40.00;;;;;;5150627;27;45312;-74
2023/07/15 11:13:14;;;;;;;14.15;3.90;;;30.80;39.70;;;;;;5151054;27;45410;-72
2023/07/15 11:15:40;;;;;;;15.48;3.30;;;30.80;39.40;;;;;;5150612;27;45441;-74
2023/07/15 11:18:14;;;;;;;12.60;3.60;;;30.90;39.60;;;;;;5149413;27;46676;-73
2023/07/15 11:20:41;;;;;;;13.57;3.10;;;31.00;39.70;;;;;;5149803;27;45327;-73
2023/07/15 11:23:08;;;;;;;8.30;3.13;;;31.00;39.40;;;;;;5150291;27;45377;-73
2023/07/15 11:25:35;;;;;;;3.70;2.40;;;31.10;39.70;;;;;;5151837;27;45477;-77
2023/07/15 11:28:02;;;;;;;2.97;2.20;;;31.10;40.10;;;;;;5149364;27;45640;-72
2023/07/15 11:30:34;;;;;;;4.60;2.33;;;31.20;39.40;;;;;;5149907;27;45394;-75
2023/07/15 11:33:01;;;;;;;4.93;2.53;;;31.30;39.10;;;;;;5148458;27;45532;-75
2023/07/15 11:35:31;;;;;;;3.65;2.20;;;31.30;38.90;;;;;;5150203;27;45368;-72
2023/07/15 11:37:57;;;;;;;4.47;2.08;;;31.40;39.30;;;;;;5147298;27;47313;-75
2023/07/15 11:40:24;;;;;;;2.70;2.10;;;31.40;39.30;;;;;;5140633;27;45421;-74
2023/07/15 11:42:53;;;;;;;2.65;2.17;;;31.40;39.50;;;;;;5150213;27;45428;-74
2023/07/15 11:45:23;;;;;;;1.73;1.60;;;31.50;39.90;;;;;;5150097;27;45314;-72
2023/07/15 11:47:53;;;;;;;4.78;1.90;;;31.60;40.00;;;;;;5150182;27;45506;-72
2023/07/15 11:50:24;;;;;;;6.35;2.00;;;31.60;40.00;;;;;;5149522;27;45292;-74
2023/07/15 11:52:51;;;;;;;4.10;2.47;;;31.60;40.10;;;;;;5149869;27;45449;-75
2023/07/15 11:55:24;;;;;;;3.88;2.60;;;31.70;39.90;;;;;;5150024;27;45333;-75
2023/07/15 11:57:52;;;;;;;3.42;2.28;;;31.70;39.90;;;;;;5149626;27;46715;-74
2023/07/15 12:00:27;;;;;;;3.10;1.77;;;31.80;39.60;;;;;;5149612;27;45280;-73
2023/07/15 12:02:53;;;;;;;3.08;2.17;;;31.80;39.40;;;;;;5149647;27;45427;-73
2023/07/15 12:05:20;;;;;;;2.97;1.90;;;31.80;39.40;;;;;;5149589;27;45344;-71
2023/07/15 12:07:49;;;;;;;2.20;1.80;;;31.90;39.40;;;;;;5149270;27;45477;-73
2023/07/15 12:10:16;;;;;;;3.25;1.95;;;31.90;39.50;;;;;;5149505;27;45420;-75
2023/07/15 12:12:45;;;;;;;2.08;1.90;;;32.00;39.60;;;;;;5148939;27;45343;-71
2023/07/15 12:15:15;;;;;;;3.55;2.08;;;32.00;39.80;;;;;;5149551;27;45314;-75
2023/07/15 12:17:42;;;;;;;2.67;2.00;;;32.10;40.00;;;;;;5148856;27;45468;-75
2023/07/15 12:20:10;;;;;;;3.00;1.70;;;32.10;39.70;;;;;;5149522;27;45467;-72
2023/07/15 12:22:38;;;;;;;2.20;2.00;;;32.10;40.00;;;;;;5149321;27;45318;-72
2023/07/15 12:25:06;;;;;;;2.20;2.00;;;32.20;39.90;;;;;;5149097;27;45466;-73
2023/07/15 12:27:33;;;;;;;2.30;2.00;;;32.30;39.80;;;;;;5148837;27;46533;-72
2023/07/15 12:30:00;;;;;;;2.60;2.13;;;32.30;39.80;;;;;;5143167;27;45283;-73
2023/07/15 12:32:28;;;;;;;2.03;1.85;;;32.40;39.70;;;;;;5149161;27;45316;-71
2023/07/15 12:34:55;;;;;;;3.15;2.03;;;32.40;39.60;;;;;;5149109;27;45454;-71
2023/07/15 12:37:22;;;;;;;2.42;1.92;;;32.50;39.50;;;;;;5149384;27;45501;-70
2023/07/15 12:39:49;;;;;;;3.78;2.42;;;32.50;39.50;;;;;;5148749;27;45352;-71
2023/07/15 12:42:15;;;;;;;2.95;2.08;;;32.60;39.60;;;;;;5149219;27;45313;-72
2023/07/15 12:44:42;;;;;;;2.58;2.17;;;32.60;39.50;;;;;;5148230;27;45440;-71
2023/07/15 12:47:09;;;;;;;2.30;2.10;;;32.70;39.30;;;;;;5149091;27;45546;-73